createdAt,value
2019-05-23T00:02:09.619Z,100105.98
2019-05-23T00:04:43.244Z,100094.56
2019-05-23T00:07:16.390Z,100095.59
2019-05-23T00:09:43.161Z,100093.78
2019-05-23T00:12:29.509Z,100092.55
2019-05-23T00:15:00.393Z,100093.79
2019-05-23T00:20:18.033Z,100096.53
2019-05-23T00:22:44.893Z,100094.34
2019-05-23T00:25:14.082Z,100096.38
2019-05-23T00:27:42.443Z,100089.02
2019-05-23T00:30:12.304Z,100094.40
2019-05-23T00:32:46.433Z,100091.48
2019-05-23T00:35:14.419Z,100088.90
2019-05-23T00:37:42.686Z,100091.65
2019-05-23T00:40:11.998Z,100095.14
2019-05-23T00:42:39.571Z,100090.57
2019-05-23T00:45:07.074Z,100088.69
2019-05-23T00:47:33.734Z,100091.91
2019-05-23T00:50:01.515Z,100087.80
2019-05-23T00:52:29.161Z,100089.03
2019-05-23T00:54:57.540Z,100089.34
2019-05-23T00:57:27.108Z,100089.28
2019-05-23T00:59:54.388Z,100095.39
2019-05-23T01:02:21.150Z,100088.66
2019-05-23T01:04:48.638Z,100059.88
2019-05-23T01:07:16.536Z,100090.05
2019-05-23T01:09:43.572Z,100091.30
2019-05-23T01:12:11.959Z,100105.42
2019-05-23T01:14:38.618Z,100090.61
2019-05-23T01:17:07.748Z,100104.97
2019-05-23T01:19:34.824Z,100091.54
2019-05-23T01:22:04.548Z,100088.53
2019-05-23T01:24:34.611Z,100094.25
2019-05-23T01:27:04.374Z,100095.91
2019-05-23T01:29:38.868Z,100087.64
2019-05-23T01:32:13.984Z,100091.72
2019-05-23T01:34:41.532Z,100087.29
2019-05-23T01:37:09.753Z,100086.27
2019-05-23T01:39:37.126Z,100091.41
2019-05-23T01:42:04.808Z,100083.95
2019-05-23T01:44:32.086Z,100088.17
2019-05-23T01:46:59.574Z,100096.50
2019-05-23T01:49:26.534Z,100091.34
2019-05-23T01:51:54.129Z,100101.09
2019-05-23T01:54:21.222Z,100099.64
2019-05-23T01:56:48.610Z,100097.22
2019-05-23T01:59:15.916Z,100096.14
2019-05-23T02:01:43.719Z,100098.08
2019-05-23T02:04:10.899Z,100093.23
2019-05-23T02:06:38.331Z,100095.88
2019-05-23T02:09:07.224Z,100099.77
2019-05-23T02:11:34.815Z,100104.55
2019-05-23T02:14:03.524Z,100104.96
2019-05-23T02:16:31.110Z,100100.33
2019-05-23T02:18:57.978Z,100102.98
2019-05-23T02:21:26.478Z,100106.06
2019-05-23T02:23:53.659Z,100101.92
2019-05-23T02:26:21.567Z,100100.83
2019-05-23T02:28:48.459Z,100105.80
2019-05-23T02:31:36.562Z,100105.05
2019-05-23T02:34:04.670Z,100099.34
2019-05-23T02:36:31.635Z,100096.03
2019-05-23T02:39:16.770Z,100093.84
2019-05-23T02:41:51.216Z,100098.07
2019-05-23T02:44:20.739Z,100094.95
2019-05-23T02:46:59.600Z,100089.50
2019-05-23T02:49:30.275Z,100090.34
2019-05-23T02:51:59.682Z,100094.47
2019-05-23T02:54:29.679Z,100093.77
2019-05-23T02:56:59.087Z,100093.47
2019-05-23T02:59:55.448Z,100097.14
2019-05-23T03:02:57.787Z,100094.66
2019-05-23T03:05:25.679Z,100090.34
2019-05-23T03:07:53.367Z,100091.72
2019-05-23T03:10:23.669Z,100089.15
2019-05-23T03:12:52.256Z,100093.27
2019-05-23T03:15:21.126Z,100087.22
2019-05-23T03:17:51.929Z,100080.84
2019-05-23T03:20:19.831Z,100084.98
2019-05-23T03:22:53.886Z,100079.66
2019-05-23T03:26:03.196Z,100078.75
2019-05-23T03:28:38.588Z,100080.39
2019-05-23T03:31:28.754Z,100075.98
2019-05-23T03:33:40.240Z,100080.94
2019-05-23T03:36:07.788Z,100070.48
2019-05-23T03:38:34.865Z,100077.47
2019-05-23T03:41:03.818Z,100079.00
2019-05-23T03:43:31.111Z,100073.22
2019-05-23T03:46:02.606Z,100075.98
2019-05-23T03:48:30.687Z,100072.86
2019-05-23T03:50:58.943Z,100076.82
2019-05-23T03:53:27.630Z,100073.22
2019-05-23T03:55:56.866Z,100071.03
2019-05-23T03:58:24.782Z,100070.64
2019-05-23T04:00:54.076Z,100068.45
2019-05-23T04:03:21.727Z,100069.94
2019-05-23T04:05:48.891Z,100069.74
2019-05-23T04:08:16.525Z,100069.25
2019-05-23T04:10:43.600Z,100074.48
2019-05-23T04:13:10.875Z,100075.80
2019-05-23T04:15:37.634Z,100073.39
2019-05-23T04:18:04.413Z,100069.62
2019-05-23T04:20:32.528Z,100073.22
2019-05-23T04:22:59.821Z,100077.34
2019-05-23T04:25:26.583Z,100073.12
2019-05-23T04:27:53.737Z,100072.39
2019-05-23T04:30:20.841Z,100079.38
2019-05-23T04:32:47.638Z,100077.78
2019-05-23T04:35:15.094Z,100075.11
2019-05-23T04:37:41.781Z,100076.77
2019-05-23T04:40:10.552Z,100074.11
2019-05-23T04:42:37.230Z,100074.95
2019-05-23T04:45:05.428Z,100079.70
2019-05-23T04:47:32.527Z,100079.86
2019-05-23T04:49:59.985Z,100082.45
2019-05-23T04:52:26.995Z,100082.86
2019-05-23T04:54:53.647Z,100083.52
2019-05-23T04:57:20.414Z,100081.61
2019-05-23T04:59:47.623Z,100082.55
2019-05-23T05:02:25.329Z,100078.88
2019-05-23T05:04:44.027Z,100076.48
2019-05-23T05:07:10.863Z,100077.19
2019-05-23T05:09:37.983Z,100081.55
2019-05-23T05:12:05.202Z,100081.34
2019-05-23T05:14:32.425Z,100078.25
2019-05-23T05:16:59.306Z,100083.42
2019-05-23T05:19:26.427Z,100082.48
2019-05-23T05:21:53.279Z,100082.48
2019-05-23T05:24:20.360Z,100082.17
2019-05-23T05:26:47.130Z,100082.45
2019-05-23T05:29:14.032Z,100078.75
2019-05-23T05:31:40.944Z,100077.74
2019-05-23T05:34:07.631Z,100081.23
2019-05-23T05:36:34.341Z,100074.91
2019-05-23T05:39:01.139Z,100074.63
2019-05-23T05:41:28.308Z,100072.19
2019-05-23T05:43:54.983Z,100071.52
2019-05-23T05:46:22.899Z,100074.81
2019-05-23T05:48:49.843Z,100074.30
2019-05-23T05:51:16.804Z,100074.70
2019-05-23T05:53:44.035Z,100079.30
2019-05-23T05:56:11.133Z,100073.70
2019-05-23T05:58:37.892Z,100078.38
2019-05-23T06:01:08.302Z,100079.84
2019-05-23T06:03:35.374Z,100079.53
2019-05-23T06:06:11.791Z,100073.62
2019-05-23T06:08:39.977Z,100082.16
2019-05-23T06:11:06.823Z,100081.34
2019-05-23T06:13:33.979Z,100086.67
2019-05-23T06:16:00.931Z,100087.22
2019-05-23T06:18:27.627Z,100089.47
2019-05-23T06:20:54.956Z,100089.06
2019-05-23T06:23:22.503Z,100096.62
2019-05-23T06:25:49.594Z,100095.89
2019-05-23T06:28:17.863Z,100093.44
2019-05-23T06:30:45.906Z,100096.65
2019-05-23T06:33:22.693Z,100090.09
2019-05-23T06:35:41.663Z,100091.13
2019-05-23T06:38:08.431Z,100087.28
2019-05-23T06:40:36.529Z,100088.80
2019-05-23T06:43:03.762Z,100086.51
2019-05-23T06:45:30.969Z,100089.91
2019-05-23T06:47:57.749Z,100083.84
2019-05-23T06:50:24.923Z,100080.08
2019-05-23T06:52:51.823Z,100075.62
2019-05-23T06:55:18.658Z,100080.77
2019-05-23T06:57:45.401Z,100078.95
2019-05-23T07:00:14.452Z,100085.67
2019-05-23T07:02:42.043Z,100087.22
2019-05-23T07:05:09.135Z,100086.11
2019-05-23T07:07:36.750Z,100087.11
2019-05-23T07:10:05.003Z,100086.27
2019-05-23T07:12:32.149Z,100076.61
2019-05-23T07:14:58.986Z,100089.77
2019-05-23T07:17:26.643Z,100086.41
2019-05-23T07:19:53.450Z,100081.27
2019-05-23T07:22:21.146Z,100083.86
2019-05-23T07:24:57.965Z,100083.89
2019-05-23T07:27:18.108Z,100085.70
2019-05-23T07:29:44.909Z,100085.83
2019-05-23T07:32:11.788Z,100083.92
2019-05-23T07:34:38.596Z,100083.50
2019-05-23T07:37:05.275Z,100087.61
2019-05-23T07:39:31.985Z,100090.02
2019-05-23T07:41:58.567Z,100079.92
2019-05-23T07:44:26.255Z,100084.97
2019-05-23T07:46:53.520Z,100082.94
2019-05-23T07:49:20.249Z,100087.50
2019-05-23T07:51:46.932Z,100081.88
2019-05-23T07:54:37.744Z,100084.78
2019-05-23T07:57:07.721Z,100079.93
2019-05-23T07:59:35.031Z,100075.69
2019-05-23T08:02:14.166Z,100083.34
2019-05-23T08:04:40.957Z,100078.20
2019-05-23T08:07:09.440Z,100081.78
2019-05-23T08:09:36.127Z,100074.80
2019-05-23T08:12:03.351Z,100074.26
2019-05-23T08:14:30.114Z,100079.99
2019-05-23T08:16:56.996Z,100080.39
2019-05-23T08:19:23.760Z,100086.91
2019-05-23T08:21:50.541Z,100085.16
2019-05-23T08:24:17.793Z,100077.06
2019-05-23T08:26:46.980Z,100082.83
2019-05-23T08:29:25.577Z,100079.35
2019-05-23T08:31:42.669Z,100067.77
2019-05-23T08:34:09.450Z,100069.39
2019-05-23T08:36:36.231Z,100064.00
2019-05-23T08:39:07.791Z,100066.62
2019-05-23T08:41:34.564Z,100062.94
2019-05-23T08:44:01.930Z,100068.09
2019-05-23T08:46:29.106Z,100070.48
2019-05-23T08:48:56.180Z,100061.77
2019-05-23T08:51:22.877Z,100068.37
2019-05-23T08:53:49.649Z,100067.45
2019-05-23T08:56:19.479Z,100066.96
2019-05-23T08:58:45.954Z,100061.77
2019-05-23T09:01:12.743Z,100061.38
2019-05-23T09:03:39.611Z,100061.03
2019-05-23T09:06:08.198Z,100068.23
2019-05-23T09:08:35.982Z,100063.45
2019-05-23T09:11:02.811Z,100061.34
2019-05-23T09:13:30.305Z,100060.20
2019-05-23T09:15:56.997Z,100057.34
2019-05-23T09:18:23.856Z,100051.58
2019-05-23T09:20:50.520Z,100050.57
2019-05-23T09:23:17.110Z,100053.98
2019-05-23T09:25:43.996Z,100049.05
2019-05-23T09:28:12.279Z,100046.27
2019-05-23T09:30:39.061Z,100040.27
2019-05-23T09:33:06.493Z,100043.38
2019-05-23T09:35:33.859Z,100036.42
2019-05-23T09:38:00.441Z,100034.13
2019-05-23T09:40:27.214Z,100042.72
2019-05-23T09:42:54.111Z,100027.08
2019-05-23T09:45:20.918Z,100027.34
2019-05-23T09:47:50.887Z,100029.84
2019-05-23T09:50:19.660Z,100030.66
2019-05-23T09:52:46.519Z,100031.76
2019-05-23T09:55:13.486Z,100020.10
2019-05-23T09:57:40.620Z,100017.84
2019-05-23T10:00:10.186Z,100017.88
2019-05-23T10:02:36.758Z,100020.11
2019-05-23T10:05:05.668Z,100023.40
2019-05-23T10:07:32.761Z,100018.60
2019-05-23T10:09:59.455Z,100014.94
2019-05-23T10:12:26.203Z,100017.14
2019-05-23T10:14:52.951Z,100013.51
2019-05-23T10:17:19.639Z,100006.37
2019-05-23T10:19:46.435Z,100010.39
2019-05-23T10:22:34.576Z,100007.09
2019-05-23T10:25:01.369Z,100005.39
2019-05-23T10:27:29.391Z,100002.08
2019-05-23T10:29:56.150Z,99998.72
2019-05-23T10:32:23.529Z,99995.42
2019-05-23T10:34:50.293Z,100000.48
2019-05-23T10:37:18.195Z,99999.69
2019-05-23T10:39:50.602Z,99997.03
2019-05-23T10:42:18.453Z,99991.00
2019-05-23T10:44:45.333Z,99994.27
2019-05-23T10:47:11.921Z,99992.77
2019-05-23T10:49:41.080Z,99991.52
2019-05-23T10:52:07.750Z,99987.42
2019-05-23T10:54:34.536Z,99982.38
2019-05-23T10:57:01.233Z,99983.64
2019-05-23T10:59:27.901Z,99970.40
2019-05-23T11:01:55.188Z,99973.54
2019-05-23T11:04:21.825Z,99975.43
2019-05-23T11:06:49.545Z,99977.06
2019-05-23T11:09:16.421Z,99968.11
2019-05-23T11:11:43.327Z,99970.58
2019-05-23T11:14:10.405Z,99966.80
2019-05-23T11:16:37.177Z,99974.06
2019-05-23T11:19:04.768Z,99971.85
2019-05-23T11:21:31.455Z,99969.36
2019-05-23T11:23:59.506Z,99951.55
2019-05-23T11:26:26.521Z,99962.06
2019-05-23T11:28:53.400Z,99953.95
2019-05-23T11:34:08.369Z,99952.13
2019-05-23T11:36:36.715Z,99946.36
2019-05-23T11:39:06.351Z,99948.56
2019-05-23T11:41:33.547Z,99947.82
2019-05-23T11:44:00.714Z,99940.95
2019-05-23T11:46:30.180Z,99941.80
2019-05-23T11:48:56.860Z,99948.63
2019-05-23T11:51:25.622Z,99942.15
2019-05-23T11:54:07.125Z,99933.71
2019-05-23T11:56:21.553Z,99926.48
2019-05-23T11:58:48.349Z,99920.17
2019-05-23T12:01:40.628Z,99935.09
2019-05-23T12:04:27.081Z,99933.39
2019-05-23T12:06:58.273Z,99921.75
2019-05-23T12:09:26.491Z,99921.69
2019-05-23T12:11:53.379Z,99916.70
2019-05-23T12:14:20.174Z,99922.73
2019-05-23T12:16:47.876Z,99919.13
2019-05-23T12:19:15.450Z,99917.87
2019-05-23T12:21:42.168Z,99907.63
2019-05-23T12:24:09.069Z,99906.30
2019-05-23T12:26:35.859Z,99909.61
2019-05-23T12:29:03.139Z,99902.64
2019-05-23T12:31:29.712Z,99898.20
2019-05-23T12:33:56.527Z,99901.81
2019-05-23T12:36:23.684Z,99902.08
2019-05-23T12:38:50.492Z,99901.09
2019-05-23T12:41:19.468Z,99890.91
2019-05-23T12:43:46.183Z,99890.73
2019-05-23T12:46:13.021Z,99884.93
2019-05-23T12:48:58.787Z,99890.23
2019-05-23T12:51:29.823Z,99879.95
2019-05-23T12:53:56.388Z,99878.43
2019-05-23T12:56:24.338Z,99874.82
2019-05-23T12:58:51.398Z,99883.56
2019-05-23T13:01:39.186Z,99868.00
2019-05-23T13:04:27.390Z,99865.39
2019-05-23T13:06:58.267Z,99873.53
2019-05-23T13:09:25.070Z,99864.14
2019-05-23T13:11:52.044Z,99870.34
2019-05-23T13:14:19.439Z,99870.34
2019-05-23T13:16:46.531Z,99861.33
2019-05-23T13:19:13.441Z,99868.23
2019-05-23T13:21:40.279Z,99859.02
2019-05-23T13:24:07.534Z,99855.77
2019-05-23T13:26:34.308Z,99851.70
2019-05-23T13:29:24.574Z,99845.38
2019-05-23T13:31:51.117Z,99871.30
2019-05-23T13:34:17.948Z,99851.98
2019-05-23T13:36:45.040Z,99849.55
2019-05-23T13:39:11.849Z,99854.27
2019-05-23T13:41:38.633Z,99840.06
2019-05-23T13:44:05.795Z,99849.09
2019-05-23T13:46:32.997Z,99843.67
2019-05-23T13:48:59.921Z,99841.69
2019-05-23T13:51:26.736Z,99838.77
2019-05-23T13:53:53.445Z,99840.13
2019-05-23T13:56:20.310Z,99832.34
2019-05-23T13:58:47.441Z,99843.61
2019-05-23T14:01:14.261Z,99843.64
2019-05-23T14:03:42.055Z,99832.61
2019-05-23T14:06:08.882Z,99829.60
2019-05-23T14:08:35.647Z,99825.06
2019-05-23T14:11:02.648Z,99826.17
2019-05-23T14:13:30.535Z,99830.25
2019-05-23T14:15:57.508Z,99829.19
2019-05-23T14:18:26.294Z,99820.09
2019-05-23T14:20:53.190Z,99824.23
2019-05-23T14:23:27.727Z,99820.63
2019-05-23T14:25:54.825Z,99813.22
2019-05-23T14:28:21.656Z,99818.19
2019-05-23T14:31:10.944Z,99815.45
2019-05-23T14:33:43.855Z,99823.34
2019-05-23T14:36:18.718Z,99824.55
2019-05-23T14:38:45.298Z,99818.81
2019-05-23T14:41:12.169Z,99804.38
2019-05-23T14:43:39.536Z,99812.77
2019-05-23T14:46:08.873Z,99812.24
2019-05-23T14:48:52.582Z,99811.75
2019-05-23T14:51:32.359Z,99810.75
2019-05-23T14:54:09.817Z,99816.40
2019-05-23T14:56:37.131Z,99811.22
2019-05-23T14:59:04.177Z,99812.44
2019-05-23T15:01:32.889Z,99809.42
2019-05-23T15:03:59.983Z,99809.52
2019-05-23T15:06:27.592Z,99804.71
2019-05-23T15:08:54.459Z,99804.48
2019-05-23T15:11:21.297Z,99806.84
2019-05-23T15:13:48.182Z,99795.64
2019-05-23T15:16:16.012Z,99792.23
2019-05-23T15:18:42.786Z,99799.25
2019-05-23T15:21:09.579Z,99794.48
2019-05-23T15:23:36.310Z,99800.02
2019-05-23T15:26:21.535Z,99801.69
2019-05-23T15:28:33.184Z,99806.38
2019-05-23T15:30:59.879Z,99798.80
2019-05-23T15:33:26.617Z,99796.79
2019-05-23T15:35:53.346Z,99795.66
2019-05-23T15:38:19.936Z,99804.48
2019-05-23T15:40:46.750Z,99797.84
2019-05-23T15:43:13.547Z,99790.73
2019-05-23T15:45:40.389Z,99792.82
2019-05-23T15:48:07.063Z,99788.50
2019-05-23T15:50:39.858Z,99792.75
2019-05-23T15:53:15.623Z,99794.48
2019-05-23T15:56:26.121Z,99795.08
2019-05-23T15:58:54.640Z,99788.18
2019-05-23T16:01:30.631Z,99787.94
2019-05-23T16:04:03.803Z,99796.90
2019-05-23T16:06:32.531Z,99786.61
2019-05-23T16:08:59.611Z,99788.66
2019-05-23T16:11:26.608Z,99782.59
2019-05-23T16:13:53.376Z,99778.97
2019-05-23T16:16:20.294Z,99776.76
2019-05-23T16:18:47.834Z,99770.05
2019-05-23T16:21:15.037Z,99775.60
2019-05-23T16:23:41.839Z,99767.23
2019-05-23T16:26:11.631Z,99765.37
2019-05-23T16:28:37.197Z,99765.30
2019-05-23T16:31:04.014Z,99765.13
2019-05-23T16:33:30.801Z,99770.41
2019-05-23T16:35:57.650Z,99764.09
2019-05-23T16:38:24.431Z,99763.23
2019-05-23T16:40:51.223Z,99770.25
2019-05-23T16:43:18.012Z,99761.66
2019-05-23T16:45:44.978Z,99761.38
2019-05-23T16:48:11.778Z,99765.41
2019-05-23T16:50:38.591Z,99760.70
2019-05-23T16:53:05.358Z,99757.33
2019-05-23T16:55:57.382Z,99762.02
2019-05-23T16:58:42.061Z,99765.81
2019-05-23T17:01:28.562Z,99758.80
2019-05-23T17:04:17.617Z,99759.69
2019-05-23T17:06:50.754Z,99756.42
2019-05-23T17:09:39.192Z,99756.71
2019-05-23T17:12:27.528Z,99756.58
2019-05-23T17:14:59.102Z,99754.79
2019-05-23T17:18:02.468Z,99761.31
2019-05-23T17:20:30.020Z,99756.92
2019-05-23T17:23:05.707Z,99761.81
2019-05-23T17:25:52.949Z,99757.37
2019-05-23T17:28:26.654Z,99750.55
2019-05-23T17:30:57.163Z,99753.16
2019-05-23T17:33:23.665Z,99756.84
2019-05-23T17:35:50.472Z,99751.71
2019-05-23T17:38:17.303Z,99755.42
2019-05-23T17:40:44.134Z,99748.43
2019-05-23T17:43:11.434Z,99749.40
2019-05-23T17:45:39.754Z,99743.03
2019-05-23T17:48:06.612Z,99744.78
2019-05-23T17:50:34.860Z,99746.92
2019-05-23T17:53:02.021Z,99746.91
2019-05-23T17:55:29.450Z,99744.58
2019-05-23T17:57:57.013Z,99745.52
2019-05-23T18:00:28.145Z,99742.30
2019-05-23T18:02:54.943Z,99744.98
2019-05-23T18:05:22.451Z,99743.69
2019-05-23T18:07:49.233Z,99747.67
2019-05-23T18:10:16.735Z,99748.72
2019-05-23T18:12:43.624Z,99748.30
2019-05-23T18:15:12.877Z,99750.69
2019-05-23T18:17:39.573Z,99753.91
2019-05-23T18:20:07.537Z,99755.16
2019-05-23T18:22:36.437Z,99746.13
2019-05-23T18:25:03.832Z,99746.24
2019-05-23T18:27:31.335Z,99743.09
2019-05-23T18:29:58.314Z,99741.17
2019-05-23T18:32:27.689Z,99744.20
2019-05-23T18:34:55.587Z,99738.70
2019-05-23T18:37:22.580Z,99740.01
2019-05-23T18:39:49.362Z,99737.38
2019-05-23T18:42:16.978Z,99738.38
2019-05-23T18:44:44.179Z,99740.94
2019-05-23T18:47:17.549Z,99742.82
2019-05-23T18:49:44.527Z,99744.44
2019-05-23T18:52:11.430Z,99744.77
2019-05-23T18:54:38.127Z,99745.19
2019-05-23T18:57:04.922Z,99742.61
2019-05-23T18:59:31.995Z,99748.28
2019-05-23T19:01:58.798Z,99746.41
2019-05-23T19:04:25.782Z,99745.95
2019-05-23T19:06:53.090Z,99746.70
2019-05-23T19:09:21.667Z,99743.64
2019-05-23T19:11:48.470Z,99748.34
2019-05-23T19:14:15.354Z,99741.16
2019-05-23T19:16:42.160Z,99749.53
2019-05-23T19:19:09.106Z,99745.17
2019-05-23T19:21:36.081Z,99744.86
2019-05-23T19:24:04.177Z,99743.59
2019-05-23T19:26:30.982Z,99749.34
2019-05-23T19:28:57.655Z,99744.13
2019-05-23T19:31:25.488Z,99750.51
2019-05-23T19:33:52.332Z,99745.28
2019-05-23T19:36:19.325Z,99750.53
2019-05-23T19:38:46.579Z,99747.53
2019-05-23T19:41:13.392Z,99747.55
2019-05-23T19:43:40.837Z,99748.19
2019-05-23T19:46:07.624Z,99756.22
2019-05-23T19:48:35.863Z,99749.48
2019-05-23T19:51:02.871Z,99750.45
2019-05-23T19:53:30.299Z,99745.84
2019-05-23T19:55:57.338Z,99749.27
2019-05-23T19:58:24.209Z,99746.00
2019-05-23T20:00:51.079Z,99742.54
2019-05-23T20:03:18.216Z,99742.22
2019-05-23T20:05:45.490Z,99743.52
2019-05-23T20:08:12.434Z,99736.30
2019-05-23T20:10:39.973Z,99735.97
2019-05-23T20:13:06.764Z,99736.76
2019-05-23T20:15:33.759Z,99739.88
2019-05-23T20:18:00.735Z,99738.09
2019-05-23T20:20:27.734Z,99739.67
2019-05-23T20:22:54.614Z,99741.45
2019-05-23T20:25:21.738Z,99749.64
2019-05-23T20:27:48.560Z,99744.97
2019-05-23T20:30:59.675Z,99746.92
2019-05-23T20:33:27.108Z,99756.01
2019-05-23T20:35:54.281Z,99747.50
2019-05-23T20:38:22.470Z,99748.70
2019-05-23T20:40:49.147Z,99747.66
2019-05-23T20:43:15.983Z,99746.48
2019-05-23T20:45:42.793Z,99756.59
2019-05-23T20:48:09.640Z,99748.72
2019-05-23T20:50:36.409Z,99747.38
2019-05-23T20:53:03.772Z,99754.86
2019-05-23T20:55:30.578Z,99746.16
2019-05-23T20:57:57.411Z,99752.17
2019-05-23T21:00:36.327Z,99755.27
2019-05-23T21:03:03.291Z,99752.58
2019-05-23T21:05:31.489Z,99747.67
2019-05-23T21:07:58.275Z,99748.78
2019-05-23T21:10:44.998Z,99751.62
2019-05-23T21:13:11.758Z,99754.86
2019-05-23T21:15:40.840Z,99750.53
2019-05-23T21:18:07.251Z,99750.67
2019-05-23T21:20:34.061Z,99750.73
2019-05-23T21:23:00.955Z,99756.41
2019-05-23T21:25:28.292Z,99758.75
2019-05-23T21:27:55.151Z,99745.09
2019-05-23T21:30:21.855Z,99748.48
2019-05-23T21:32:48.625Z,99757.19
2019-05-23T21:35:15.260Z,99752.38
2019-05-23T21:37:42.049Z,99750.45
2019-05-23T21:40:13.435Z,99747.48
2019-05-23T21:42:47.651Z,99745.54
2019-05-23T21:45:08.955Z,99749.25
2019-05-23T21:47:35.724Z,99748.44
2019-05-23T21:50:02.875Z,99748.92
2019-05-23T21:52:29.453Z,99746.31
2019-05-23T21:54:56.246Z,99748.16
2019-05-23T21:57:22.931Z,99738.89
2019-05-23T21:59:49.687Z,99743.66
2019-05-23T22:02:24.728Z,99743.59
2019-05-23T22:04:56.485Z,99737.47
2019-05-23T22:07:23.257Z,99735.89
2019-05-23T22:09:50.054Z,99730.61
2019-05-23T22:12:17.246Z,99731.79
2019-05-23T22:14:45.135Z,99737.22
2019-05-23T22:17:11.920Z,99732.23
2019-05-23T22:19:38.618Z,99730.75
2019-05-23T22:22:05.803Z,99727.64
2019-05-23T22:24:32.603Z,99726.92
2019-05-23T22:26:59.381Z,99721.58
2019-05-23T22:29:26.173Z,99715.00
2019-05-23T22:31:56.402Z,99710.94
2019-05-23T22:34:37.271Z,99715.08
2019-05-23T22:37:09.872Z,99710.50
2019-05-23T22:39:36.558Z,99709.72
2019-05-23T22:42:05.146Z,99711.45
2019-05-23T22:44:31.944Z,99703.37
2019-05-23T22:46:58.761Z,99707.88
2019-05-23T22:49:25.440Z,99708.53
2019-05-23T22:51:52.249Z,99712.00
2019-05-23T22:54:19.055Z,99708.94
2019-05-23T22:56:45.879Z,99716.34
2019-05-23T22:59:12.652Z,99701.05
2019-05-23T23:01:39.463Z,99707.55
2019-05-23T23:04:06.682Z,99705.96
2019-05-23T23:09:07.977Z,99706.47
2019-05-23T23:11:34.867Z,99708.28
2019-05-23T23:14:01.636Z,99706.29
2019-05-23T23:16:28.334Z,99702.86
2019-05-23T23:18:56.187Z,99708.53
2019-05-23T23:21:22.874Z,99700.69
2019-05-23T23:23:50.150Z,99705.48
2019-05-23T23:26:16.940Z,99699.33
2019-05-23T23:28:45.851Z,99696.94
2019-05-23T23:31:12.866Z,99701.23
2019-05-23T23:33:39.641Z,99698.01
2019-05-23T23:36:06.320Z,99691.38
2019-05-23T23:38:34.006Z,99691.44
2019-05-23T23:41:00.685Z,99690.27
2019-05-23T23:43:27.760Z,99688.34
2019-05-23T23:46:12.551Z,99701.91
2019-05-23T23:48:58.482Z,99697.41
2019-05-23T23:51:43.254Z,99693.84
2019-05-23T23:54:28.120Z,99694.25
2019-05-23T23:57:13.465Z,99683.36
2019-05-23T23:59:39.916Z,99703.54
